Time;durP1;ratioP1;P1;durP2;ratioP2;P2;SDS_P1;SDS_P2;PMS_P1;PMS_P2;Temp;Humidity;BMP_temperature;BMP_pressure;BME280_temperature;BME280_humidity;BME280_pressure;Samples;Min_cycle;Max_cycle;Signal;HPM_P1;HPM_P2
2021/12/03 00:01:33;;;;;;;30.35;7.15;;;2.50;99.90;;;;;;5093496;28;20048;-76
2021/12/03 00:04:02;;;;;;;11.05;4.85;;;2.60;99.90;;;;;;5101265;28;20207;-77
2021/12/03 00:06:34;;;;;;;12.07;5.70;;;2.60;99.90;;;;;;5105684;28;20047;-77
2021/12/03 00:09:04;;;;;;;22.17;6.13;;;2.90;99.90;;;;;;5101102;28;20047;-77
2021/12/03 00:11:32;;;;;;;40.97;6.10;;;2.60;99.90;;;;;;5101613;28;20048;-77
2021/12/03 00:14:01;;;;;;;15.27;4.97;;;4.30;99.90;;;;;;5092580;28;20040;-77
2021/12/03 00:16:30;;;;;;;16.05;5.43;;;4.00;99.90;;;;;;5064373;28;20059;-78
2021/12/03 00:18:59;;;;;;;12.05;6.78;;;2.70;99.90;;;;;;5080545;28;20040;-77
2021/12/03 00:21:27;;;;;;;15.55;6.15;;;3.10;99.90;;;;;;5107960;28;20062;-78
2021/12/03 00:23:56;;;;;;;17.08;6.03;;;2.80;99.90;;;;;;5124676;28;20049;-77
2021/12/03 00:26:25;;;;;;;9.13;4.65;;;2.80;99.90;;;;;;5122482;28;20051;-76
2021/12/03 00:28:53;;;;;;;15.93;6.90;;;4.30;99.90;;;;;;5121022;28;20041;-77
2021/12/03 00:31:21;;;;;;;23.83;5.78;;;3.10;99.90;;;;;;5111980;28;20055;-76
2021/12/03 00:33:49;;;;;;;10.35;4.97;;;4.30;99.90;;;;;;5111445;28;20047;-75
2021/12/03 00:36:17;;;;;;;11.07;4.47;;;2.90;99.90;;;;;;5103231;28;20540;-76
2021/12/03 00:38:48;;;;;;;14.30;4.70;;;4.10;99.90;;;;;;5102806;28;20044;-76
2021/12/03 00:41:19;;;;;;;13.20;4.10;;;3.00;99.90;;;;;;5087517;28;20058;-76
2021/12/03 00:43:52;;;;;;;13.65;5.30;;;3.00;99.90;;;;;;5104104;28;20044;-76
2021/12/03 00:46:22;;;;;;;11.85;5.30;;;3.80;99.90;;;;;;5105045;28;20066;-74
2021/12/03 00:48:53;;;;;;;13.07;4.23;;;3.60;99.90;;;;;;5103780;28;20054;-76
2021/12/03 00:51:22;;;;;;;;;;;3.90;99.90;;;;;;5104827;28;20040;-75
2021/12/03 00:53:51;;;;;;;9.57;4.50;;;3.10;99.90;;;;;;5104385;28;20470;-75
2021/12/03 00:56:19;;;;;;;5.65;3.47;;;3.10;99.90;;;;;;5101006;28;20048;-76
2021/12/03 00:58:47;;;;;;;10.15;4.43;;;3.10;99.90;;;;;;5116044;28;20051;-75
2021/12/03 01:01:16;;;;;;;8.88;3.35;;;3.10;99.90;;;;;;5123394;28;20047;-75
2021/12/03 01:03:44;;;;;;;11.30;3.22;;;3.10;99.90;;;;;;5102812;28;20056;-76
2021/12/03 01:06:13;;;;;;;8.35;3.83;;;3.20;99.90;;;;;;5085284;28;20044;-76
2021/12/03 01:08:41;;;;;;;11.75;4.55;;;3.20;99.90;;;;;;5101750;28;20047;-75
2021/12/03 01:11:11;;;;;;;15.85;5.43;;;3.60;99.90;;;;;;5101505;28;20480;-75
2021/12/03 01:13:42;;;;;;;10.38;3.10;;;3.20;99.90;;;;;;5102476;28;20052;-75
2021/12/03 01:16:14;;;;;;;9.02;3.58;;;2.80;99.90;;;;;;5101918;28;20055;-76
2021/12/03 01:18:45;;;;;;;5.95;3.50;;;3.30;99.90;;;;;;5099299;28;20048;-76
2021/12/03 01:21:14;;;;;;;8.85;4.65;;;3.20;99.90;;;;;;5099384;28;20056;-75
2021/12/03 01:23:43;;;;;;;7.75;3.28;;;3.90;99.90;;;;;;5100652;28;20044;-76
2021/12/03 01:26:13;;;;;;;10.82;3.33;;;3.30;99.90;;;;;;5099925;28;20044;-76
2021/12/03 01:28:41;;;;;;;8.18;4.13;;;3.30;99.90;;;;;;5101511;28;20048;-77
2021/12/03 01:31:09;;;;;;;15.05;3.50;;;3.30;99.90;;;;;;5101465;28;20050;-76
2021/12/03 01:33:38;;;;;;;5.75;2.70;;;3.30;99.90;;;;;;5101343;28;20066;-75
2021/12/03 01:36:07;;;;;;;8.27;3.90;;;3.60;99.90;;;;;;5080575;28;20048;-77
2021/12/03 01:38:35;;;;;;;14.57;3.25;;;3.30;99.90;;;;;;5105920;28;20048;-74
2021/12/03 01:41:04;;;;;;;13.23;3.25;;;3.20;99.90;;;;;;5104387;28;20052;-74
2021/12/03 01:43:34;;;;;;;7.32;3.22;;;3.40;99.90;;;;;;5104322;28;20052;-76
2021/12/03 01:46:07;;;;;;;9.30;3.22;;;3.40;99.90;;;;;;5103698;28;20056;-75
2021/12/03 01:48:36;;;;;;;10.13;4.03;;;3.40;99.90;;;;;;5087576;28;20048;-76
2021/12/03 01:51:06;;;;;;;7.50;3.30;;;4.10;99.90;;;;;;5105866;28;20151;-76
2021/12/03 01:53:36;;;;;;;5.25;2.40;;;3.40;99.90;;;;;;5103814;28;20048;-77
2021/12/03 01:56:15;;;;;;;4.15;2.60;;;3.40;99.90;;;;;;5087592;28;20052;-73
2021/12/03 01:58:45;;;;;;;6.03;2.55;;;3.80;99.90;;;;;;5104055;28;20051;-75
2021/12/03 02:01:20;;;;;;;10.13;2.75;;;3.50;99.90;;;;;;5086149;28;20048;-74
2021/12/03 02:03:52;;;;;;;5.88;2.58;;;5.20;99.90;;;;;;5082129;28;20058;-75
2021/12/03 02:06:22;;;;;;;3.92;2.75;;;3.90;99.90;;;;;;5088621;28;20054;-76
2021/12/03 02:08:50;;;;;;;5.55;2.63;;;3.60;99.90;;;;;;5102881;28;20043;-76
2021/12/03 02:11:19;;;;;;;2.50;1.90;;;5.10;99.90;;;;;;5082941;28;20044;-77
2021/12/03 02:13:48;;;;;;;10.90;2.75;;;4.40;99.90;;;;;;5084407;28;20062;-77
2021/12/03 02:16:20;;;;;;;;;;;3.70;99.90;;;;;;5083701;28;20057;-75
2021/12/03 02:18:48;;;;;;;7.00;3.03;;;3.70;99.90;;;;;;5053829;28;19920;-75
2021/12/03 02:21:17;;;;;;;9.60;2.95;;;3.70;99.90;;;;;;5108284;28;20043;-77
2021/12/03 02:23:46;;;;;;;9.15;2.72;;;3.80;99.90;;;;;;5124109;28;20050;-74
2021/12/03 02:26:15;;;;;;;5.00;2.65;;;3.80;99.90;;;;;;5107092;28;20052;-77
2021/12/03 02:28:46;;;;;;;7.80;3.28;;;4.50;99.90;;;;;;5106890;28;20113;-75
2021/12/03 02:31:18;;;;;;;8.00;2.85;;;3.80;99.90;;;;;;5105872;28;20054;-74
2021/12/03 02:33:47;;;;;;;9.68;3.03;;;3.90;99.90;;;;;;5103611;28;20052;-75
2021/12/03 02:36:16;;;;;;;6.50;2.63;;;3.90;99.90;;;;;;5104746;28;20040;-75
2021/12/03 02:38:45;;;;;;;5.47;2.80;;;3.90;99.90;;;;;;5089242;28;20048;-75
2021/12/03 02:41:21;;;;;;;6.07;2.85;;;3.90;99.90;;;;;;5103334;28;20056;-74
2021/12/03 02:43:50;;;;;;;4.32;2.47;;;4.00;99.90;;;;;;5098976;28;20052;-77
2021/12/03 02:46:18;;;;;;;5.65;2.50;;;4.00;99.90;;;;;;5103216;28;20040;-73
2021/12/03 02:48:47;;;;;;;3.00;2.47;;;4.00;99.90;;;;;;5104012;28;20051;-77
2021/12/03 02:51:17;;;;;;;4.30;2.00;;;3.90;99.90;;;;;;5104976;28;20054;-74
2021/12/03 02:53:45;;;;;;;4.90;2.80;;;4.00;99.90;;;;;;5105491;28;20402;-76
2021/12/03 02:56:13;;;;;;;3.67;1.50;;;4.90;99.90;;;;;;5106150;28;20044;-75
2021/12/03 02:58:41;;;;;;;8.15;2.00;;;4.60;99.90;;;;;;5088036;28;20048;-76
2021/12/03 03:01:10;;;;;;;3.70;1.60;;;3.90;99.90;;;;;;5106756;28;20051;-76
2021/12/03 03:03:39;;;;;;;6.28;2.30;;;3.90;99.90;;;;;;5087727;28;20043;-77
2021/12/03 03:06:08;;;;;;;7.88;2.13;;;3.90;99.90;;;;;;5100794;28;20036;-75
2021/12/03 03:08:40;;;;;;;4.13;2.05;;;3.90;99.90;;;;;;5100336;28;20048;-75
2021/12/03 03:11:08;;;;;;;2.45;1.92;;;3.90;99.90;;;;;;5101658;28;20139;-75
2021/12/03 03:13:37;;;;;;;1.85;1.73;;;4.40;99.90;;;;;;5106173;28;20432;-77
2021/12/03 03:16:06;;;;;;;3.05;1.98;;;3.80;99.90;;;;;;5106736;28;20058;-74
2021/12/03 03:18:34;;;;;;;8.20;2.30;;;3.80;99.90;;;;;;5090813;28;20063;-77
2021/12/03 03:21:05;;;;;;;1.65;1.55;;;5.40;99.90;;;;;;5086684;28;20048;-76
2021/12/03 03:23:34;;;;;;;2.63;2.15;;;3.80;99.90;;;;;;5085410;28;20052;-76
2021/12/03 03:26:03;;;;;;;5.93;2.42;;;3.80;99.90;;;;;;5086398;28;20450;-76
2021/12/03 03:28:31;;;;;;;5.07;3.03;;;3.80;99.90;;;;;;5092421;28;20059;-76
2021/12/03 03:31:00;;;;;;;3.50;2.35;;;3.80;99.90;;;;;;5128481;28;20047;-77
2021/12/03 03:33:29;;;;;;;13.23;2.13;;;3.80;99.90;;;;;;5085444;28;20052;-76
2021/12/03 03:35:59;;;;;;;3.78;1.95;;;3.70;99.90;;;;;;5082180;28;20044;-75
2021/12/03 03:38:28;;;;;;;6.27;2.20;;;3.70;99.90;;;;;;5104062;28;20058;-76
2021/12/03 03:40:56;;;;;;;4.10;2.17;;;3.70;99.90;;;;;;5054101;28;20316;-75
2021/12/03 03:43:24;;;;;;;5.95;2.10;;;3.70;99.90;;;;;;5084637;28;20049;-76
2021/12/03 03:45:53;;;;;;;5.88;2.58;;;3.80;99.90;;;;;;5084288;28;20060;-77
2021/12/03 03:48:21;;;;;;;4.10;3.17;;;3.70;99.90;;;;;;5084663;28;20057;-78
2021/12/03 03:50:51;;;;;;;4.95;2.15;;;3.70;99.90;;;;;;5103223;28;20546;-77
2021/12/03 03:53:25;;;;;;;4.13;2.65;;;5.10;99.90;;;;;;5102786;28;20062;-77
2021/12/03 03:55:59;;;;;;;4.15;2.53;;;4.50;99.90;;;;;;5104652;28;20503;-76
2021/12/03 03:58:27;;;;;;;5.22;2.45;;;3.60;99.90;;;;;;5103494;28;20064;-75
2021/12/03 04:00:55;;;;;;;10.50;2.45;;;3.50;99.90;;;;;;5102052;28;20048;-76
2021/12/03 04:03:24;;;;;;;3.78;2.20;;;3.50;99.90;;;;;;5104614;28;20040;-76
2021/12/03 04:05:53;;;;;;;8.05;3.47;;;3.50;99.90;;;;;;5085693;28;20398;-77
2021/12/03 04:08:22;;;;;;;3.83;2.05;;;3.60;99.90;;;;;;5104303;28;20052;-75
2021/12/03 04:10:51;;;;;;;7.93;2.63;;;4.60;99.90;;;;;;5104611;28;20504;-75
2021/12/03 04:13:19;;;;;;;8.25;4.05;;;3.40;99.90;;;;;;5085597;28;20048;-76
2021/12/03 04:15:48;;;;;;;4.22;2.40;;;3.90;99.90;;;;;;5104423;28;20058;-75
2021/12/03 04:18:17;;;;;;;5.07;2.22;;;3.30;99.90;;;;;;5115709;28;20052;-76
2021/12/03 04:20:46;;;;;;;4.25;2.45;;;3.30;99.90;;;;;;5106763;28;20078;-75
2021/12/03 04:23:18;;;;;;;4.53;2.33;;;4.20;99.90;;;;;;5106030;28;20203;-74
2021/12/03 04:25:48;;;;;;;7.80;2.55;;;3.30;99.90;;;;;;5124888;28;20050;-75
2021/12/03 04:28:18;;;;;;;4.95;2.40;;;5.30;99.90;;;;;;5122948;28;20040;-76
2021/12/03 04:30:47;;;;;;;4.45;3.05;;;3.30;99.90;;;;;;5102929;28;20043;-76
2021/12/03 04:33:17;;;;;;;5.90;2.35;;;3.30;99.90;;;;;;5103366;28;20054;-75
2021/12/03 04:35:46;;;;;;;5.53;2.38;;;3.00;99.90;;;;;;5103467;28;20048;-75
2021/12/03 04:38:15;;;;;;;11.02;4.75;;;3.30;99.90;;;;;;5105674;28;20048;-75
2021/12/03 04:40:45;;;;;;;2.87;2.57;;;3.30;99.90;;;;;;5086913;28;20048;-76
2021/12/03 04:43:13;;;;;;;11.43;2.97;;;3.30;99.90;;;;;;5091465;28;20058;-76
2021/12/03 04:45:41;;;;;;;2.88;2.25;;;3.40;99.90;;;;;;5101931;28;20058;-77
2021/12/03 04:48:11;;;;;;;4.70;2.33;;;3.30;99.90;;;;;;5084102;28;20059;-77
2021/12/03 04:50:41;;;;;;;4.85;3.03;;;3.30;99.90;;;;;;5073405;28;20036;-76
2021/12/03 04:53:11;;;;;;;4.43;2.60;;;3.50;99.90;;;;;;5085474;28;20059;-76
2021/12/03 04:55:39;;;;;;;4.60;2.30;;;3.30;99.90;;;;;;5102904;28;20055;-77
2021/12/03 04:58:07;;;;;;;3.78;1.85;;;3.30;99.90;;;;;;5086095;28;20056;-76
2021/12/03 05:00:45;;;;;;;4.95;2.05;;;3.40;99.90;;;;;;5085895;28;20051;-78
2021/12/03 05:03:13;;;;;;;2.67;2.05;;;3.40;99.90;;;;;;5112402;28;20056;-76
2021/12/03 05:05:48;;;;;;;6.25;2.65;;;3.40;99.90;;;;;;5109977;28;20055;-75
2021/12/03 05:08:16;;;;;;;2.88;2.25;;;3.50;99.90;;;;;;5104067;28;20052;-75
2021/12/03 05:10:45;;;;;;;4.07;1.98;;;3.50;99.90;;;;;;5086393;28;20059;-77
2021/12/03 05:13:19;;;;;;;2.80;1.83;;;3.50;99.90;;;;;;5107324;28;20048;-76
2021/12/03 05:15:48;;;;;;;4.32;1.90;;;3.50;99.90;;;;;;5108232;28;20042;-77
2021/12/03 05:18:21;;;;;;;3.03;1.67;;;3.60;99.90;;;;;;5090616;28;20048;-76
2021/12/03 05:20:53;;;;;;;2.47;2.30;;;3.60;99.90;;;;;;5107680;28;20646;-76
2021/12/03 05:23:22;;;;;;;2.47;2.25;;;3.60;99.90;;;;;;5106049;28;20052;-77
2021/12/03 05:25:51;;;;;;;3.38;2.63;;;3.70;99.90;;;;;;5109180;28;20047;-77
2021/12/03 05:28:19;;;;;;;5.65;1.70;;;3.70;99.90;;;;;;5102733;28;20048;-77
2021/12/03 05:30:50;;;;;;;5.60;2.60;;;3.70;99.90;;;;;;5086907;28;20041;-76
2021/12/03 05:33:19;;;;;;;5.88;3.00;;;3.70;99.90;;;;;;5107606;28;20056;-76
2021/12/03 05:35:47;;;;;;;3.33;2.45;;;3.80;99.90;;;;;;5086286;28;20052;-76
2021/12/03 05:38:16;;;;;;;2.90;1.70;;;4.00;99.90;;;;;;5104963;28;20063;-75
2021/12/03 05:40:45;;;;;;;6.53;2.30;;;3.80;99.90;;;;;;5107900;28;20051;-76
2021/12/03 05:43:16;;;;;;;;;;;3.80;99.90;;;;;;5107882;28;20043;-78
2021/12/03 05:45:45;;;;;;;3.65;1.90;;;3.90;99.90;;;;;;5087735;28;20035;-77
2021/12/03 05:48:14;;;;;;;2.25;1.70;;;3.90;99.90;;;;;;5098897;28;20043;-77
2021/12/03 05:50:45;;;;;;;1.60;1.50;;;4.00;99.90;;;;;;5107932;28;20044;-74
2021/12/03 05:53:15;;;;;;;2.13;1.73;;;4.00;99.90;;;;;;5106883;28;20197;-77
2021/12/03 05:55:44;;;;;;;2.47;2.22;;;4.10;99.90;;;;;;5073640;28;20048;-76
2021/12/03 05:58:12;;;;;;;2.30;1.60;;;4.10;99.90;;;;;;5108048;28;20055;-76
2021/12/03 06:00:42;;;;;;;3.13;1.70;;;4.20;99.90;;;;;;5107455;28;20051;-75
2021/12/03 06:03:11;;;;;;;1.98;1.52;;;4.20;99.90;;;;;;5106987;28;20048;-76
2021/12/03 06:05:42;;;;;;;2.28;2.05;;;4.30;99.90;;;;;;5105306;28;20052;-74
2021/12/03 06:08:10;;;;;;;;;;;4.30;99.90;;;;;;5104787;28;20040;-78
2021/12/03 06:10:39;;;;;;;3.10;1.77;;;4.30;99.90;;;;;;5089204;28;19936;-77
2021/12/03 06:13:07;;;;;;;4.65;2.03;;;4.40;99.90;;;;;;5100740;28;20052;-76
2021/12/03 06:15:35;;;;;;;6.32;1.65;;;4.40;99.90;;;;;;5100595;28;20048;-77
2021/12/03 06:18:06;;;;;;;3.65;1.70;;;4.70;99.90;;;;;;5105954;28;20051;-76
2021/12/03 06:20:35;;;;;;;2.00;1.80;;;4.50;99.90;;;;;;5103508;28;20062;-76
2021/12/03 06:23:03;;;;;;;5.38;2.05;;;4.50;99.90;;;;;;5099766;28;20068;-77
2021/12/03 06:25:31;;;;;;;4.50;1.50;;;4.50;99.90;;;;;;5100417;28;20052;-76
2021/12/03 06:28:00;;;;;;;1.73;1.52;;;4.60;99.90;;;;;;5103772;28;20062;-76
2021/12/03 06:30:28;;;;;;;1.92;1.50;;;4.60;99.90;;;;;;5100996;28;20047;-75
2021/12/03 06:32:56;;;;;;;2.60;1.65;;;5.10;99.90;;;;;;5107209;28;20051;-76
2021/12/03 06:35:25;;;;;;;2.35;1.60;;;4.70;99.90;;;;;;5102152;28;20052;-75
2021/12/03 06:37:53;;;;;;;3.40;1.73;;;4.70;99.90;;;;;;5101968;28;20059;-75
2021/12/03 06:40:25;;;;;;;1.98;1.40;;;4.80;99.90;;;;;;5101437;28;20051;-76
2021/12/03 06:42:54;;;;;;;2.15;1.13;;;4.80;99.90;;;;;;5102609;28;20048;-78
2021/12/03 06:45:22;;;;;;;2.38;1.50;;;4.90;99.90;;;;;;5088763;28;20055;-75
2021/12/03 06:47:52;;;;;;;2.50;2.30;;;4.90;99.90;;;;;;5113377;28;20047;-75
2021/12/03 06:50:21;;;;;;;2.40;1.70;;;4.90;99.90;;;;;;5102644;28;20056;-76
2021/12/03 06:53:00;;;;;;;1.73;1.40;;;4.90;99.90;;;;;;5102854;28;20040;-75
2021/12/03 06:55:37;;;;;;;16.88;2.08;;;5.00;99.90;;;;;;5083842;28;20505;-78
2021/12/03 06:58:08;;;;;;;2.80;1.67;;;5.00;99.90;;;;;;5092155;28;20039;-75
2021/12/03 07:00:38;;;;;;;;;;;5.10;99.90;;;;;;5101962;28;20067;-78
2021/12/03 07:03:10;;;;;;;2.30;1.77;;;5.10;99.90;;;;;;5102581;28;19932;-77
2021/12/03 07:05:39;;;;;;;2.28;1.58;;;5.10;99.90;;;;;;5105629;28;20048;-76
2021/12/03 07:08:07;;;;;;;1.50;1.40;;;5.20;99.90;;;;;;5110450;28;20031;-75
2021/12/03 07:10:36;;;;;;;2.90;1.50;;;5.20;99.90;;;;;;5109386;28;20051;-76
2021/12/03 07:13:05;;;;;;;1.80;1.70;;;5.30;99.90;;;;;;5097317;28;20051;-77
2021/12/03 07:15:34;;;;;;;1.20;1.20;;;5.40;99.90;;;;;;5093059;28;20044;-76
2021/12/03 07:18:03;;;;;;;1.55;1.45;;;5.50;99.90;;;;;;5115813;28;20267;-75
2021/12/03 07:20:31;;;;;;;3.42;1.65;;;5.50;99.90;;;;;;5101205;28;20048;-76
2021/12/03 07:23:00;;;;;;;1.30;1.20;;;7.00;99.90;;;;;;5104178;28;20044;-76
2021/12/03 07:25:29;;;;;;;1.60;1.50;;;5.60;99.90;;;;;;5102538;28;20044;-76
2021/12/03 07:27:57;;;;;;;1.48;1.38;;;5.70;99.90;;;;;;5084479;28;20055;-75
2021/12/03 07:30:31;;;;;;;1.63;1.52;;;5.70;99.90;;;;;;5084468;28;20048;-76
2021/12/03 07:33:01;;;;;;;2.53;2.30;;;5.80;99.90;;;;;;5090497;28;20039;-74
2021/12/03 07:35:29;;;;;;;1.30;1.30;;;6.20;99.90;;;;;;5086101;28;20055;-77
2021/12/03 07:37:58;;;;;;;4.90;1.73;;;5.90;99.90;;;;;;5105526;28;20051;-76
2021/12/03 07:40:26;;;;;;;1.55;1.45;;;5.90;99.90;;;;;;5104071;28;20042;-76
2021/12/03 07:42:54;;;;;;;1.48;1.38;;;6.00;99.90;;;;;;5109104;28;20400;-78
2021/12/03 07:45:24;;;;;;;1.40;1.30;;;6.10;99.90;;;;;;5102821;28;20535;-79
2021/12/03 07:47:55;;;;;;;9.60;1.73;;;6.10;99.90;;;;;;5104891;28;20050;-75
2021/12/03 07:50:24;;;;;;;2.13;1.55;;;6.10;99.90;;;;;;5081201;28;20051;-77
2021/12/03 07:52:52;;;;;;;11.68;2.42;;;6.20;99.90;;;;;;5100691;28;20051;-78
2021/12/03 07:55:20;;;;;;;1.60;1.50;;;6.20;99.90;;;;;;5101643;28;20048;-77
2021/12/03 07:57:49;;;;;;;1.50;1.40;;;6.30;99.90;;;;;;5102079;28;20048;-77
2021/12/03 08:00:19;;;;;;;1.83;1.38;;;6.30;99.90;;;;;;5083537;28;20048;-78
2021/12/03 08:03:08;;;;;;;1.48;1.42;;;6.90;99.90;;;;;;5073617;28;20055;-78
2021/12/03 08:05:42;;;;;;;1.17;1.17;;;6.40;99.90;;;;;;5084367;28;20052;-79
2021/12/03 08:08:25;;;;;;;1.83;1.60;;;6.60;99.90;;;;;;5103213;28;20054;-79
2021/12/03 08:11:00;;;;;;;1.23;1.13;;;6.20;99.90;;;;;;5092120;28;20497;-78
2021/12/03 08:13:29;;;;;;;1.20;1.20;;;6.50;99.90;;;;;;5118557;28;20047;-79
2021/12/03 08:15:59;;;;;;;1.20;1.10;;;6.70;99.90;;;;;;5106945;28;20048;-79
2021/12/03 08:18:28;;;;;;;1.10;1.10;;;6.70;99.90;;;;;;5103621;28;20038;-78
2021/12/03 08:20:56;;;;;;;5.40;1.25;;;6.80;99.90;;;;;;5090342;28;20059;-78
2021/12/03 08:23:25;;;;;;;2.35;1.60;;;6.80;99.90;;;;;;5083855;28;20069;-77
2021/12/03 08:25:53;;;;;;;5.20;1.33;;;6.80;99.90;;;;;;5124113;28;20047;-79
2021/12/03 08:28:23;;;;;;;3.58;2.28;;;6.90;99.90;;;;;;5064810;28;20056;-78
2021/12/03 08:30:55;;;;;;;1.95;1.20;;;6.90;99.90;;;;;;5081585;28;20037;-80
2021/12/03 08:33:25;;;;;;;1.27;1.17;;;6.90;99.90;;;;;;5103955;28;20040;-80
2021/12/03 08:35:54;;;;;;;1.20;1.20;;;7.00;99.90;;;;;;5086342;28;20052;-78
2021/12/03 08:38:23;;;;;;;5.55;1.80;;;7.00;99.90;;;;;;5101051;28;20296;-78
2021/12/03 08:41:10;;;;;;;1.25;1.13;;;7.10;99.90;;;;;;5087391;28;20052;-78
2021/12/03 08:43:39;;;;;;;1.45;1.35;;;7.00;99.90;;;;;;5085096;28;20055;-79
2021/12/03 08:46:14;;;;;;;3.63;1.40;;;7.10;99.90;;;;;;5083940;28;20054;-79
2021/12/03 08:48:46;;;;;;;1.52;1.30;;;7.20;99.90;;;;;;5103828;28;20056;-79
2021/12/03 08:56:51;;;;;;;1.30;1.20;;;7.30;99.90;;;;;;5045377;28;20071;-80
2021/12/03 08:59:19;;;;;;;4.95;1.70;;;7.80;99.90;;;;;;5080163;28;20036;-79
2021/12/03 09:01:47;;;;;;;2.10;1.40;;;7.40;99.90;;;;;;5062407;28;20056;-78
2021/12/03 09:04:17;;;;;;;3.90;1.80;;;7.40;99.90;;;;;;5044771;28;20056;-78
2021/12/03 09:06:45;;;;;;;4.18;1.98;;;7.40;99.90;;;;;;5048083;28;20063;-79
2021/12/03 09:09:14;;;;;;;3.33;2.28;;;7.50;99.90;;;;;;5081211;28;20049;-79
2021/12/03 09:11:42;;;;;;;4.22;1.75;;;7.40;99.90;;;;;;5081355;28;20056;-79
2021/12/03 09:14:23;;;;;;;3.53;1.65;;;7.50;99.90;;;;;;5073096;28;20418;-79
2021/12/03 09:17:01;;;;;;;5.72;1.83;;;7.50;99.90;;;;;;5082965;28;20033;-79
2021/12/03 09:19:40;;;;;;;13.60;3.88;;;7.60;99.90;;;;;;5085178;28;20044;-81
2021/12/03 09:22:11;;;;;;;1.70;1.60;;;7.80;99.90;;;;;;5064326;28;20057;-79
2021/12/03 09:24:40;;;;;;;5.15;2.50;;;7.70;99.90;;;;;;5081365;28;20051;-79
2021/12/03 09:27:15;;;;;;;5.18;2.03;;;7.70;99.90;;;;;;5061721;28;20032;-82
2021/12/03 09:29:44;;;;;;;2.70;2.03;;;7.70;99.90;;;;;;5064616;28;20056;-80
2021/12/03 09:32:21;;;;;;;2.28;1.95;;;7.80;99.90;;;;;;5063801;28;20048;-80
2021/12/03 09:34:51;;;;;;;4.38;2.20;;;7.90;99.90;;;;;;5062074;28;20445;-80
2021/12/03 09:37:23;;;;;;;3.53;2.13;;;7.90;99.90;;;;;;5061077;28;20270;-81
2021/12/03 09:39:55;;;;;;;8.32;3.08;;;7.90;99.90;;;;;;5077845;28;20052;-79
2021/12/03 09:42:38;;;;;;;5.47;2.20;;;8.50;99.90;;;;;;5080053;28;20056;-79
2021/12/03 09:45:09;;;;;;;7.00;3.10;;;8.00;99.90;;;;;;5043659;28;20060;-82
2021/12/03 09:47:38;;;;;;;7.55;2.38;;;7.90;99.90;;;;;;5074231;28;20052;-78
2021/12/03 09:50:13;;;;;;;6.25;3.22;;;7.90;99.90;;;;;;5080597;28;20052;-79
2021/12/03 09:55:15;;;;;;;7.68;2.70;;;8.00;99.90;;;;;;5078246;28;20087;-79
2021/12/03 10:14:33;;;;;;;7.95;3.38;;;8.40;99.90;;;;;;5083738;28;20040;-80
2021/12/03 10:20:00;;;;;;;7.07;2.47;;;8.60;99.90;;;;;;5083991;28;20498;-80
2021/12/03 10:33:48;;;;;;;6.25;2.60;;;8.80;99.90;;;;;;5099863;28;20059;-80
2021/12/03 10:42:44;;;;;;;11.05;2.83;;;9.00;99.90;;;;;;5068497;28;20041;-80
2021/12/03 10:48:16;;;;;;;2.50;2.15;;;9.10;99.90;;;;;;5083076;28;20048;-79
2021/12/03 10:51:04;;;;;;;7.22;2.15;;;9.10;99.90;;;;;;5067377;28;20063;-80
2021/12/03 10:53:39;;;;;;;5.53;2.83;;;9.20;99.90;;;;;;5084382;28;20053;-80
2021/12/03 10:56:31;;;;;;;2.25;2.00;;;9.40;99.90;;;;;;5086051;28;20041;-80
2021/12/03 10:59:37;;;;;;;5.50;2.08;;;9.30;99.90;;;;;;5084908;28;20048;-80
2021/12/03 11:50:49;;;;;;;8.43;3.75;;;10.00;99.90;;;;;;5081769;28;20041;-80
2021/12/03 11:57:14;;;;;;;18.42;8.25;;;10.00;99.90;;;;;;5082638;28;20056;-80
2021/12/03 12:03:48;;;;;;;14.50;7.05;;;10.10;99.90;;;;;;5065179;28;20056;-80
2021/12/03 12:37:14;;;;;;;4.90;2.55;;;10.40;99.90;;;;;;5063473;28;20053;-81
2021/12/03 13:06:28;;;;;;;7.60;4.53;;;10.30;99.90;;;;;;5064748;28;20059;-80
2021/12/03 14:07:41;;;;;;;7.45;3.40;;;10.50;99.90;;;;;;5084194;28;20050;-79
2021/12/03 14:34:23;;;;;;;8.35;4.68;;;9.90;99.90;;;;;;5082234;28;20028;-79
2021/12/03 14:38:46;;;;;;;8.38;4.20;;;9.80;99.90;;;;;;5079759;28;20040;-80
2021/12/03 14:41:34;;;;;;;15.40;5.28;;;9.80;99.90;;;;;;5048628;28;20049;-80
2021/12/03 14:44:19;;;;;;;11.45;5.80;;;9.80;99.90;;;;;;5063322;28;20049;-80
2021/12/03 14:53:10;;;;;;;7.22;4.18;;;9.70;99.90;;;;;;5063246;28;20044;-81
2021/12/03 14:55:49;;;;;;;10.13;4.82;;;9.70;99.90;;;;;;5084908;28;20066;-80
2021/12/03 15:01:28;;;;;;;9.32;5.20;;;9.70;99.90;;;;;;5080711;28;20055;-80
2021/12/03 15:04:57;;;;;;;6.70;4.38;;;10.50;99.90;;;;;;5081626;28;20052;-79
2021/12/03 15:07:44;;;;;;;10.52;4.32;;;9.50;99.90;;;;;;5048006;28;20943;-80
2021/12/03 15:10:27;;;;;;;10.48;4.82;;;9.70;99.90;;;;;;5067942;28;20436;-80
2021/12/03 15:25:05;;;;;;;9.25;5.28;;;9.40;99.90;;;;;;5072185;28;20045;-81
2021/12/03 15:33:39;;;;;;;9.48;5.20;;;9.40;99.90;;;;;;5079428;28;20052;-82
2021/12/03 15:36:15;;;;;;;11.65;6.57;;;9.40;99.90;;;;;;5048019;28;20059;-82
2021/12/03 15:38:58;;;;;;;10.07;5.53;;;9.40;99.90;;;;;;5060720;28;20047;-80
2021/12/03 16:08:21;;;;;;;16.42;8.63;;;9.40;99.90;;;;;;5075384;28;20056;-80
2021/12/03 16:11:55;;;;;;;21.17;11.07;;;9.40;99.90;;;;;;5058019;28;20118;-80
2021/12/03 16:17:40;;;;;;;17.17;7.45;;;9.40;99.90;;;;;;5059748;28;20036;-79
2021/12/03 16:23:20;;;;;;;17.00;7.40;;;8.50;99.90;;;;;;5060053;28;20064;-80
2021/12/03 16:51:46;;;;;;;15.48;7.43;;;9.40;99.90;;;;;;5077324;28;20040;-79
2021/12/03 16:54:32;;;;;;;12.75;6.93;;;9.50;99.90;;;;;;5062599;28;21228;-81
2021/12/03 16:57:01;;;;;;;20.42;8.10;;;9.40;99.90;;;;;;5076905;28;20040;-81
2021/12/03 16:59:33;;;;;;;19.17;7.70;;;9.40;99.90;;;;;;5045570;28;20055;-80
2021/12/03 17:02:15;;;;;;;17.83;8.98;;;9.40;99.90;;;;;;5075330;28;20050;-80
2021/12/03 17:05:08;;;;;;;20.98;8.68;;;9.50;99.90;;;;;;5089905;28;20060;-80
2021/12/03 17:13:39;;;;;;;25.92;9.15;;;9.40;99.90;;;;;;5075093;28;20045;-80
2021/12/03 17:49:49;;;;;;;17.05;7.28;;;8.90;99.90;;;;;;5074807;28;20044;-80
2021/12/03 17:58:12;;;;;;;19.20;8.43;;;8.70;99.90;;;;;;5058806;28;20049;-79
2021/12/03 18:00:51;;;;;;;15.73;7.35;;;8.70;99.90;;;;;;5061487;28;20333;-80
2021/12/03 18:43:45;;;;;;;28.27;14.00;;;8.10;99.90;;;;;;5072318;28;20353;-80
2021/12/03 18:52:16;;;;;;;30.70;12.77;;;6.70;99.90;;;;;;5078276;28;20040;-80
2021/12/03 18:57:29;;;;;;;32.50;13.27;;;8.00;99.90;;;;;;5076365;28;20540;-81
2021/12/03 19:00:01;;;;;;;28.13;12.15;;;8.30;99.90;;;;;;5060647;28;20053;-81
2021/12/03 19:02:30;;;;;;;28.95;12.65;;;8.00;99.90;;;;;;5081227;28;20055;-81
2021/12/03 19:05:08;;;;;;;27.35;12.23;;;8.00;99.90;;;;;;5081904;28;20048;-79
2021/12/03 19:07:46;;;;;;;24.77;13.18;;;8.00;99.90;;;;;;5057849;28;20045;-80
2021/12/03 19:10:21;;;;;;;26.83;12.50;;;8.00;99.90;;;;;;5077114;28;20052;-80
2021/12/03 19:13:03;;;;;;;22.35;12.38;;;8.00;99.90;;;;;;5062487;28;20055;-80
2021/12/03 19:15:33;;;;;;;22.85;11.18;;;9.20;99.90;;;;;;5078659;28;20051;-81
2021/12/03 19:18:03;;;;;;;20.52;10.60;;;8.00;99.90;;;;;;5057662;28;20060;-81
2021/12/03 19:20:56;;;;;;;22.77;12.20;;;8.00;99.90;;;;;;5065824;28;20048;-80
2021/12/03 19:23:25;;;;;;;21.35;11.23;;;8.00;99.90;;;;;;5081281;28;20058;-80
2021/12/03 19:25:54;;;;;;;25.80;13.13;;;8.20;99.90;;;;;;5064518;28;20045;-81
2021/12/03 19:28:23;;;;;;;27.40;12.27;;;7.90;99.90;;;;;;5076263;28;20049;-80
2021/12/03 19:30:56;;;;;;;23.65;13.50;;;7.90;99.90;;;;;;5078328;28;20052;-80
2021/12/03 19:33:28;;;;;;;22.60;11.02;;;7.90;99.90;;;;;;5059179;28;20071;-79
2021/12/03 19:35:57;;;;;;;24.85;13.15;;;7.90;99.90;;;;;;5047149;28;20052;-79
2021/12/03 19:38:26;;;;;;;30.50;14.07;;;7.90;99.90;;;;;;5078174;28;20044;-78
2021/12/03 19:41:00;;;;;;;22.77;13.30;;;7.90;99.90;;;;;;5076206;28;20430;-80
2021/12/03 19:43:35;;;;;;;23.30;12.00;;;7.90;99.90;;;;;;5044712;28;20282;-81
2021/12/03 19:46:18;;;;;;;31.95;12.88;;;7.90;99.90;;;;;;5081056;28;20044;-85
2021/12/03 19:49:02;;;;;;;24.98;13.43;;;7.90;99.90;;;;;;5063174;28;20107;-80
2021/12/03 19:51:32;;;;;;;25.30;13.73;;;8.10;99.90;;;;;;5049628;28;20055;-81
2021/12/03 19:54:01;;;;;;;23.77;14.10;;;7.90;99.90;;;;;;5077222;28;20048;-81
2021/12/03 19:56:33;;;;;;;27.38;15.63;;;7.90;99.90;;;;;;5076317;28;20041;-81
2021/12/03 19:59:03;;;;;;;31.83;14.00;;;7.90;99.90;;;;;;5074212;28;20056;-83
2021/12/03 20:01:33;;;;;;;22.98;12.32;;;8.40;99.90;;;;;;5062377;28;20594;-81
2021/12/03 20:04:04;;;;;;;26.02;13.60;;;7.90;99.90;;;;;;5073430;28;21269;-80
2021/12/03 20:06:34;;;;;;;24.15;15.00;;;7.90;99.90;;;;;;5061307;28;20040;-81
2021/12/03 20:09:04;;;;;;;28.40;14.93;;;7.90;99.90;;;;;;5076075;28;20059;-81
2021/12/03 20:11:41;;;;;;;26.20;13.93;;;7.90;99.90;;;;;;5061623;28;20490;-80
2021/12/03 20:14:15;;;;;;;25.23;13.32;;;7.90;99.90;;;;;;5077886;28;20290;-80
2021/12/03 20:27:49;;;;;;;26.33;14.25;;;7.90;99.90;;;;;;5078519;28;20317;-78
2021/12/03 20:30:34;;;;;;;31.52;12.93;;;8.10;99.90;;;;;;5079501;28;20055;-81
2021/12/03 20:33:14;;;;;;;26.17;14.40;;;7.90;99.90;;;;;;5081047;28;20033;-81
2021/12/03 20:38:14;;;;;;;26.55;14.02;;;7.90;99.90;;;;;;5061450;28;20055;-79